createdAt,value
2023-04-21T00:01:11.446Z,7.12
2023-04-21T00:02:52.057Z,7.08
2023-04-21T00:04:32.505Z,7.1
2023-04-21T00:06:12.739Z,7.27
2023-04-21T00:07:53.097Z,7.46
2023-04-21T00:09:33.476Z,7.65
2023-04-21T00:11:13.912Z,7.72
2023-04-21T00:12:54.309Z,7.87
2023-04-21T00:14:34.752Z,8.01
2023-04-21T00:16:15.215Z,8.1
2023-04-21T00:17:55.707Z,8.14
2023-04-21T00:19:36.103Z,8.2
2023-04-21T00:21:16.460Z,8.37
2023-04-21T00:22:56.818Z,8.49
2023-04-21T00:24:37.204Z,8.55
2023-04-21T00:26:17.683Z,8.65
2023-04-21T00:27:57.998Z,8.63
2023-04-21T00:29:38.371Z,8.71
2023-04-21T00:31:18.922Z,8.75
2023-04-21T00:32:59.386Z,8.73
2023-04-21T00:34:39.755Z,8.71
2023-04-21T00:36:20.145Z,8.68
2023-04-21T00:38:00.518Z,8.59
2023-04-21T00:39:40.895Z,8.55
2023-04-21T00:41:21.328Z,8.48
2023-04-21T00:43:01.638Z,8.41
2023-04-21T00:44:42.051Z,8.34
2023-04-21T00:46:22.441Z,8.35
2023-04-21T00:48:02.952Z,8.45
2023-04-21T00:49:43.230Z,8.44
2023-04-21T00:51:23.674Z,8.41
2023-04-21T00:53:04.152Z,8.34
2023-04-21T00:54:44.452Z,8.28
2023-04-21T00:56:24.920Z,8.25
2023-04-21T00:58:05.299Z,8.24
2023-04-21T00:59:45.776Z,8.28
2023-04-21T01:01:26.296Z,8.3
2023-04-21T01:03:06.899Z,8.24
2023-04-21T01:04:47.097Z,8.14
2023-04-21T01:06:27.524Z,8.15
2023-04-21T01:08:07.980Z,8.15
2023-04-21T01:09:48.466Z,8.13
2023-04-21T01:11:28.879Z,8.03
2023-04-21T01:13:09.257Z,8
2023-04-21T01:14:49.648Z,7.94
2023-04-21T01:16:30.101Z,7.93
2023-04-21T01:18:10.508Z,7.87
2023-04-21T01:19:50.932Z,7.87
2023-04-21T01:21:31.277Z,7.94
2023-04-21T01:23:11.687Z,7.89
2023-04-21T01:24:52.089Z,7.87
2023-04-21T01:26:32.422Z,7.89
2023-04-21T01:28:12.897Z,7.86
2023-04-21T01:29:53.390Z,7.92
2023-04-21T01:31:33.816Z,7.98
2023-04-21T01:33:14.156Z,8.1
2023-04-21T01:34:54.502Z,8.27
2023-04-21T01:36:34.939Z,8.37
2023-04-21T01:38:16.455Z,8.41
2023-04-21T01:39:55.757Z,8.48
2023-04-21T01:41:36.199Z,8.55
2023-04-21T01:43:16.594Z,8.62
2023-04-21T01:44:57.047Z,8.73
2023-04-21T01:46:37.445Z,8.76
2023-04-21T01:48:17.884Z,8.82
2023-04-21T01:49:58.183Z,8.86
2023-04-21T01:51:38.607Z,8.94
2023-04-21T01:53:18.906Z,9.04
2023-04-21T01:54:59.294Z,9.16
2023-04-21T01:56:39.845Z,9.19
2023-04-21T01:58:20.230Z,9.23
2023-04-21T02:00:00.626Z,9.29
2023-04-21T02:01:41.105Z,9.31
2023-04-21T02:03:21.616Z,9.34
2023-04-21T02:05:01.872Z,9.37
2023-04-21T02:06:42.310Z,9.41
2023-04-21T02:08:22.821Z,9.38
2023-04-21T02:10:03.165Z,9.4
2023-04-21T02:11:43.574Z,9.35
2023-04-21T02:13:23.957Z,9.35
2023-04-21T02:15:04.324Z,9.34
2023-04-21T02:16:44.851Z,9.35
2023-04-21T02:18:25.178Z,9.34
2023-04-21T02:20:05.625Z,9.27
2023-04-21T02:21:46.026Z,9.26
2023-04-21T02:23:26.404Z,9.27
2023-04-21T02:25:06.826Z,9.29
2023-04-21T02:26:47.316Z,9.29
2023-04-21T02:28:27.676Z,9.31
2023-04-21T02:30:08.107Z,9.29
2023-04-21T02:32:00.673Z,9.26
2023-04-21T02:33:28.986Z,9.29
2023-04-21T02:35:09.452Z,9.23
2023-04-21T02:36:49.814Z,9.21
2023-04-21T02:38:30.178Z,9.23
2023-04-21T02:40:10.577Z,9.23
2023-04-21T02:41:50.955Z,9.2
2023-04-21T02:43:31.378Z,9.2
2023-04-21T02:45:11.710Z,9.23
2023-04-21T02:46:52.132Z,9.23
2023-04-21T02:48:32.629Z,9.27
2023-04-21T02:50:13.036Z,9.3
2023-04-21T02:51:53.481Z,9.29
2023-04-21T02:53:33.906Z,9.31
2023-04-21T02:55:14.221Z,9.35
2023-04-21T02:56:54.553Z,9.34
2023-04-21T02:58:34.896Z,9.34
2023-04-21T03:00:15.276Z,9.34
2023-04-21T03:01:55.718Z,9.35
2023-04-21T03:03:36.391Z,9.35
2023-04-21T03:05:16.562Z,9.35
2023-04-21T03:06:56.921Z,9.35
2023-04-21T03:08:37.296Z,9.35
2023-04-21T03:10:17.674Z,9.3
2023-04-21T03:11:57.958Z,9.23
2023-04-21T03:13:38.406Z,9.24
2023-04-21T03:15:18.875Z,9.2
2023-04-21T03:16:59.519Z,9.21
2023-04-21T03:18:39.775Z,9.21
2023-04-21T03:20:20.179Z,9.23
2023-04-21T03:22:00.555Z,9.33
2023-04-21T03:23:40.892Z,9.31
2023-04-21T03:25:21.352Z,9.3
2023-04-21T03:27:01.828Z,9.29
2023-04-21T03:28:42.187Z,9.23
2023-04-21T03:30:22.609Z,9.21
2023-04-21T03:32:02.960Z,9.21
2023-04-21T03:33:43.294Z,9.21
2023-04-21T03:35:23.628Z,9.21
2023-04-21T03:37:03.972Z,9.21
2023-04-21T03:38:44.336Z,9.21
2023-04-21T03:40:24.643Z,9.23
2023-04-21T03:42:05.138Z,9.23
2023-04-21T03:43:45.508Z,9.26
2023-04-21T03:45:26.026Z,9.24
2023-04-21T03:47:06.464Z,9.26
2023-04-21T03:48:46.890Z,9.24
2023-04-21T03:50:27.238Z,9.24
2023-04-21T03:52:07.696Z,9.19
2023-04-21T03:53:48.143Z,9.19
2023-04-21T03:55:28.581Z,9.16
2023-04-21T03:57:08.998Z,9.2
2023-04-21T03:58:49.437Z,9.2
2023-04-21T04:00:29.899Z,9.24
2023-04-21T04:02:10.395Z,9.29
2023-04-21T04:03:50.928Z,9.3
2023-04-21T04:05:31.207Z,9.35
2023-04-21T04:07:11.547Z,9.41
2023-04-21T04:08:51.942Z,9.47
2023-04-21T04:10:32.357Z,9.51
2023-04-21T04:12:12.704Z,9.52
2023-04-21T04:13:53.152Z,9.57
2023-04-21T04:15:33.536Z,9.55
2023-04-21T04:17:13.936Z,9.57
2023-04-21T04:18:54.320Z,9.62
2023-04-21T04:20:34.785Z,9.59
2023-04-21T04:22:15.137Z,9.65
2023-04-21T04:23:55.519Z,9.63
2023-04-21T04:25:35.812Z,9.59
2023-04-21T04:27:16.319Z,9.58
2023-04-21T04:28:56.855Z,9.58
2023-04-21T04:30:37.126Z,9.55
2023-04-21T04:32:17.531Z,9.54
2023-04-21T04:33:58.004Z,9.51
2023-04-21T04:35:38.397Z,9.47
2023-04-21T04:37:18.833Z,9.44
2023-04-21T04:38:59.292Z,9.45
2023-04-21T04:40:39.774Z,9.5
2023-04-21T04:42:20.179Z,9.5
2023-04-21T04:44:01.098Z,9.52
2023-04-21T04:45:40.906Z,9.52
2023-04-21T04:47:21.303Z,9.55
2023-04-21T04:49:01.762Z,9.57
2023-04-21T04:50:42.076Z,9.55
2023-04-21T04:52:22.493Z,9.61
2023-04-21T04:54:02.888Z,9.62
2023-04-21T04:55:43.317Z,9.61
2023-04-21T04:57:23.815Z,9.65
2023-04-21T04:59:04.239Z,9.63
2023-04-21T05:00:44.652Z,9.62
2023-04-21T05:02:25.251Z,9.59
2023-04-21T05:04:05.670Z,9.57
2023-04-21T05:05:46.016Z,9.61
2023-04-21T05:07:26.450Z,9.63
2023-04-21T05:09:06.781Z,9.63
2023-04-21T05:10:47.159Z,9.65
2023-04-21T05:12:27.534Z,9.68
2023-04-21T05:14:07.933Z,9.72
2023-04-21T05:15:48.340Z,9.71
2023-04-21T05:17:28.819Z,9.72
2023-04-21T05:19:09.069Z,9.68
2023-04-21T05:20:49.501Z,9.68
2023-04-21T05:22:30.005Z,9.62
2023-04-21T05:24:10.475Z,9.63
2023-04-21T05:25:50.802Z,9.63
2023-04-21T05:27:31.157Z,9.62
2023-04-21T05:29:11.613Z,9.61
2023-04-21T05:30:52.029Z,9.63
2023-04-21T05:32:32.546Z,9.63
2023-04-21T05:34:12.872Z,9.65
2023-04-21T05:35:53.305Z,9.71
2023-04-21T05:37:33.715Z,9.75
2023-04-21T05:39:14.105Z,9.78
2023-04-21T05:40:54.556Z,9.84
2023-04-21T05:42:34.962Z,9.85
2023-04-21T05:44:15.359Z,9.88
2023-04-21T05:45:55.833Z,9.86
2023-04-21T05:47:36.214Z,9.85
2023-04-21T05:49:16.613Z,9.82
2023-04-21T05:50:56.956Z,9.82
2023-04-21T05:52:37.401Z,9.84
2023-04-21T05:54:17.967Z,9.88
2023-04-21T05:55:58.130Z,9.96
2023-04-21T05:57:38.563Z,10
2023-04-21T05:59:19.103Z,10.1
2023-04-21T06:00:59.485Z,10.14
2023-04-21T06:02:40.154Z,10.24
2023-04-21T06:04:20.961Z,10.32
2023-04-21T06:06:00.827Z,10.35
2023-04-21T06:07:41.172Z,10.37
2023-04-21T06:09:21.663Z,10.4
2023-04-21T06:11:01.998Z,10.47
2023-04-21T06:12:42.464Z,10.57
2023-04-21T06:14:22.916Z,10.63
2023-04-21T06:16:03.302Z,10.72
2023-04-21T06:17:43.744Z,10.74
2023-04-21T06:19:24.120Z,10.76
2023-04-21T06:21:04.548Z,10.79
2023-04-21T06:22:44.895Z,10.79
2023-04-21T06:24:25.718Z,10.86
2023-04-21T06:26:05.635Z,11.04
2023-04-21T06:27:45.960Z,11.22
2023-04-21T06:29:26.573Z,11.32
2023-04-21T06:31:08.768Z,11.43
2023-04-21T06:32:47.086Z,11.54
2023-04-21T06:34:27.451Z,11.7
2023-04-21T06:36:07.824Z,11.91
2023-04-21T06:37:48.244Z,12.01
2023-04-21T06:39:28.570Z,12.14
2023-04-21T06:41:08.885Z,12.24
2023-04-21T06:42:49.319Z,12.31
2023-04-21T06:44:29.818Z,12.48
2023-04-21T06:46:10.223Z,12.67
2023-04-21T06:47:50.632Z,12.82
2023-04-21T06:49:30.915Z,12.88
2023-04-21T06:51:11.315Z,13
2023-04-21T06:52:51.726Z,13.11
2023-04-21T06:54:32.215Z,13.22
2023-04-21T06:56:12.783Z,13.33
2023-04-21T06:57:52.957Z,13.46
2023-04-21T06:59:33.387Z,13.62
2023-04-21T07:01:13.865Z,13.73
2023-04-21T07:02:54.336Z,13.66
2023-04-21T07:04:34.734Z,13.61
2023-04-21T07:06:15.076Z,13.49
2023-04-21T07:07:55.475Z,13.54
2023-04-21T07:09:35.815Z,13.59
2023-04-21T07:11:16.259Z,13.73
2023-04-21T07:12:56.730Z,13.86
2023-04-21T07:14:37.119Z,14
2023-04-21T07:16:17.621Z,14.11
2023-04-21T07:17:58.066Z,14.25
2023-04-21T07:19:38.488Z,14.4
2023-04-21T07:21:18.876Z,14.47
2023-04-21T07:22:59.337Z,14.67
2023-04-21T07:24:39.795Z,14.72
2023-04-21T07:26:20.136Z,14.83
2023-04-21T07:28:00.557Z,14.99
2023-04-21T07:29:41.035Z,15.09
2023-04-21T07:31:21.457Z,15.22
2023-04-21T07:33:01.898Z,15.37
2023-04-21T07:34:42.314Z,15.48
2023-04-21T07:36:22.739Z,15.58
2023-04-21T07:38:03.229Z,15.72
2023-04-21T07:39:43.607Z,15.84
2023-04-21T07:41:24.056Z,16.02
2023-04-21T07:43:04.532Z,16.22
2023-04-21T07:44:44.923Z,16.37
2023-04-21T07:46:25.389Z,16.52
2023-04-21T07:48:05.831Z,16.77
2023-04-21T07:49:46.163Z,16.92
2023-04-21T07:51:26.634Z,17.14
2023-04-21T07:53:07.112Z,17.33
2023-04-21T07:54:47.469Z,17.38
2023-04-21T07:56:27.858Z,17.56
2023-04-21T07:58:08.299Z,17.7
2023-04-21T07:59:48.768Z,17.91
2023-04-21T08:01:29.108Z,18.07
2023-04-21T08:03:09.727Z,18.15
2023-04-21T08:04:50.212Z,18.08
2023-04-21T08:06:30.550Z,18.11
2023-04-21T08:08:10.864Z,18.25
2023-04-21T08:09:51.266Z,18.29
2023-04-21T08:11:31.676Z,18.45
2023-04-21T08:13:11.990Z,18.48
2023-04-21T08:14:52.334Z,18.52
2023-04-21T08:16:32.800Z,18.62
2023-04-21T08:18:13.197Z,18.73
2023-04-21T08:19:53.545Z,18.82
2023-04-21T08:21:33.948Z,18.77
2023-04-21T08:23:14.437Z,18.87
2023-04-21T08:24:54.809Z,18.87
2023-04-21T08:26:35.218Z,18.9
2023-04-21T08:28:15.641Z,18.94
2023-04-21T08:29:56.117Z,19.07
2023-04-21T08:31:36.493Z,19.32
2023-04-21T08:33:16.803Z,19.6
2023-04-21T08:34:57.235Z,19.73
2023-04-21T08:36:37.559Z,19.79
2023-04-21T08:38:18.062Z,19.88
2023-04-21T08:39:58.375Z,20.19
2023-04-21T08:41:38.832Z,20.34
2023-04-21T08:43:19.248Z,20.29
2023-04-21T08:44:59.657Z,20.27
2023-04-21T08:46:40.078Z,20.37
2023-04-21T08:48:20.596Z,20.61
2023-04-21T08:50:00.980Z,20.61
2023-04-21T08:51:41.375Z,20.61
2023-04-21T08:53:21.753Z,20.72
2023-04-21T08:55:02.153Z,20.82
2023-04-21T08:56:42.595Z,20.84
2023-04-21T08:58:22.951Z,20.96
2023-04-21T09:00:05.602Z,21.01
2023-04-21T09:01:43.781Z,21.02
2023-04-21T09:03:26.287Z,21.13
2023-04-21T09:05:04.790Z,21.25
2023-04-21T09:06:45.046Z,21.33
2023-04-21T09:08:25.471Z,21.29
2023-04-21T09:10:05.851Z,21.13
2023-04-21T09:11:46.183Z,21.29
2023-04-21T09:13:26.619Z,21.36
2023-04-21T09:15:07.101Z,21.53
2023-04-21T09:16:47.535Z,21.56
2023-04-21T09:18:27.895Z,21.29
2023-04-21T09:20:08.278Z,21.37
2023-04-21T09:21:48.687Z,21.37
2023-04-21T09:23:29.149Z,21.39
2023-04-21T09:25:09.556Z,21.47
2023-04-21T09:26:49.960Z,21.64
2023-04-21T09:28:30.387Z,21.76
2023-04-21T09:30:10.707Z,21.9
2023-04-21T09:31:51.208Z,22.08
2023-04-21T09:33:39.141Z,22.18
2023-04-21T09:35:11.980Z,22.39
2023-04-21T09:36:52.410Z,22.46
2023-04-21T09:38:32.798Z,22.53
2023-04-21T09:40:13.091Z,22.64
2023-04-21T09:41:53.438Z,22.71
2023-04-21T09:43:33.886Z,22.76
2023-04-21T09:46:54.650Z,22.89
2023-04-21T09:48:35.057Z,23
2023-04-21T09:50:16.267Z,22.98
2023-04-21T09:52:17.682Z,23.19
2023-04-21T09:53:36.137Z,23.4
2023-04-21T09:55:16.522Z,23.52
2023-04-21T09:56:56.957Z,23.52
2023-04-21T09:58:37.325Z,23.41
2023-04-21T10:00:17.835Z,23.73
2023-04-21T10:01:58.280Z,24.06
2023-04-21T10:03:38.672Z,24.13
2023-04-21T10:05:18.947Z,24.2
2023-04-21T10:06:59.239Z,24.23
2023-04-21T10:08:39.731Z,24.3
2023-04-21T10:10:20.111Z,24.23
2023-04-21T10:12:00.524Z,24.37
2023-04-21T10:13:40.901Z,24.57
2023-04-21T10:15:21.247Z,24.65
2023-04-21T10:17:01.617Z,24.65
2023-04-21T10:18:42.043Z,24.67
2023-04-21T10:20:22.557Z,24.55
2023-04-21T10:22:02.952Z,24.44
2023-04-21T10:23:43.323Z,24.48
2023-04-21T10:25:23.707Z,24.35
2023-04-21T10:27:04.114Z,24.19
2023-04-21T10:28:44.539Z,24.23
2023-04-21T10:30:24.921Z,24.23
2023-04-21T10:32:07.588Z,24.34
2023-04-21T10:33:45.718Z,24.3
2023-04-21T10:35:26.203Z,24.32
2023-04-21T10:37:06.552Z,24.24
2023-04-21T10:38:46.937Z,24.3
2023-04-21T10:40:36.705Z,24.23
2023-04-21T10:42:07.849Z,24.25
2023-04-21T10:43:49.927Z,23.9
2023-04-21T10:45:28.682Z,24.02
2023-04-21T10:47:09.409Z,24.32
2023-04-21T10:48:49.565Z,24.3
2023-04-21T10:50:29.971Z,24.16
2023-04-21T10:52:10.381Z,24.32
2023-04-21T10:53:50.807Z,24.6
2023-04-21T10:55:31.192Z,24.19
2023-04-21T10:57:11.688Z,24.34
2023-04-21T10:58:52.042Z,24.34
2023-04-21T11:00:32.392Z,24.37
2023-04-21T11:02:12.948Z,24.57
2023-04-21T11:03:53.305Z,24.81
2023-04-21T11:05:33.606Z,24.92
2023-04-21T11:07:13.955Z,24.95
2023-04-21T11:08:54.317Z,24.99
2023-04-21T11:10:34.711Z,25.27
2023-04-21T11:12:15.106Z,25.2
2023-04-21T11:13:55.530Z,25.27
2023-04-21T11:15:36.023Z,25.38
2023-04-21T11:17:16.307Z,25.38
2023-04-21T11:18:56.686Z,25.34
2023-04-21T11:20:37.158Z,25.36
2023-04-21T11:22:17.483Z,25.16
2023-04-21T11:23:57.926Z,24.54
2023-04-21T11:25:38.254Z,24.07
2023-04-21T11:27:18.690Z,24.21
2023-04-21T11:28:59.146Z,24.19
2023-04-21T11:30:39.595Z,24.16
2023-04-21T11:32:19.941Z,24.32
2023-04-21T11:34:00.268Z,24.61
2023-04-21T11:35:40.680Z,24.61
2023-04-21T11:37:21.059Z,24.62
2023-04-21T11:39:01.416Z,24.61
2023-04-21T11:40:41.900Z,24.6
2023-04-21T11:42:22.228Z,24.64
2023-04-21T11:44:02.583Z,24.47
2023-04-21T11:45:43.055Z,24.54
2023-04-21T11:47:23.515Z,24.6
2023-04-21T11:49:03.923Z,24.25
2023-04-21T11:50:44.394Z,24.38
2023-04-21T11:52:24.777Z,24.25
2023-04-21T11:54:05.206Z,24.42
2023-04-21T11:55:45.624Z,24.75
2023-04-21T11:57:26.156Z,24.85
2023-04-21T11:59:06.530Z,24.81
2023-04-21T12:00:47.027Z,24.78
2023-04-21T12:02:27.548Z,24.46
2023-04-21T12:04:08.068Z,24.47
2023-04-21T12:05:48.398Z,24.51
2023-04-21T12:07:28.752Z,24.5
2023-04-21T12:09:09.185Z,24.48
2023-04-21T12:10:49.598Z,24.47
2023-04-21T12:12:30.004Z,24.25
2023-04-21T12:14:10.424Z,23.86
2023-04-21T12:15:50.782Z,24.09
2023-04-21T12:17:31.205Z,23.89
2023-04-21T12:19:11.616Z,23.45
2023-04-21T12:20:52.057Z,23.14
2023-04-21T12:22:32.360Z,22.58
2023-04-21T12:24:12.814Z,22.34
2023-04-21T12:25:53.226Z,22.74
2023-04-21T12:27:33.631Z,22.97
2023-04-21T12:29:14.140Z,23.31
2023-04-21T12:30:54.596Z,23.65
2023-04-21T12:32:35.132Z,24
2023-04-21T12:34:15.484Z,23.86
2023-04-21T12:35:55.828Z,23.68
2023-04-21T12:37:36.196Z,23.49
2023-04-21T12:39:16.606Z,23.44
2023-04-21T12:40:57.063Z,23.54
2023-04-21T12:42:38.393Z,23.42
2023-04-21T12:44:17.851Z,23.76
2023-04-21T12:45:58.315Z,23.87
2023-04-21T12:47:38.758Z,23.55
2023-04-21T12:49:19.158Z,23.28
2023-04-21T12:50:59.634Z,23.1
2023-04-21T12:52:39.980Z,22.94
2023-04-21T12:54:20.369Z,22.96
2023-04-21T12:56:04.470Z,23.04
2023-04-21T12:57:41.131Z,23.1
2023-04-21T12:59:21.500Z,22.59
2023-04-21T13:01:01.935Z,22.34
2023-04-21T13:02:42.350Z,22.46
2023-04-21T13:04:22.894Z,22.66
2023-04-21T13:06:03.106Z,22.8
2023-04-21T13:07:43.518Z,22.66
2023-04-21T13:09:23.941Z,22.49
2023-04-21T13:11:04.325Z,22.29
2023-04-21T13:12:44.774Z,22.08
2023-04-21T13:14:25.181Z,21.85
2023-04-21T13:16:05.592Z,21.63
2023-04-21T13:17:45.966Z,21.68
2023-04-21T13:19:26.437Z,21.81
2023-04-21T13:21:06.851Z,22.05
2023-04-21T13:22:47.275Z,22.07
2023-04-21T13:24:27.715Z,22.6
2023-04-21T13:26:08.106Z,23.1
2023-04-21T13:27:48.415Z,23.08
2023-04-21T13:29:28.988Z,22.82
2023-04-21T13:31:09.308Z,22.5
2023-04-21T13:32:49.711Z,22.35
2023-04-21T13:34:30.375Z,22.16
2023-04-21T13:36:12.687Z,21.92
2023-04-21T13:37:50.956Z,21.9
2023-04-21T13:39:31.639Z,22.23
2023-04-21T13:41:11.793Z,22.67
2023-04-21T13:42:52.247Z,23.14
2023-04-21T13:44:32.668Z,23.54
2023-04-21T13:46:13.102Z,23.99
2023-04-21T13:47:53.557Z,24.17
2023-04-21T13:49:34.207Z,24.38
2023-04-21T13:51:14.200Z,24.23
2023-04-21T13:52:54.540Z,23.89
2023-04-21T13:54:35.053Z,23.44
2023-04-21T13:56:15.284Z,22.98
2023-04-21T13:57:55.720Z,22.52
2023-04-21T13:59:36.128Z,22.23
2023-04-21T14:01:17.213Z,22
2023-04-21T14:02:57.334Z,21.78
2023-04-21T14:04:37.835Z,21.54
2023-04-21T14:06:17.800Z,21.53
2023-04-21T14:07:58.173Z,21.4
2023-04-21T14:09:38.642Z,21.1
2023-04-21T14:11:19.091Z,20.99
2023-04-21T14:12:59.539Z,21.05
2023-04-21T14:14:39.939Z,20.96
2023-04-21T14:16:20.460Z,20.89
2023-04-21T14:18:00.861Z,21.33
2023-04-21T14:19:41.317Z,21.7
2023-04-21T14:21:21.738Z,22.16
2023-04-21T14:23:02.169Z,22.34
2023-04-21T14:24:42.604Z,22.05
2023-04-21T14:26:23.071Z,21.91
2023-04-21T14:28:03.508Z,21.74
2023-04-21T14:29:43.861Z,21.73
2023-04-21T14:31:24.300Z,21.84
2023-04-21T14:33:04.798Z,22.15
2023-04-21T14:34:45.173Z,21.82
2023-04-21T14:36:25.714Z,21.6
2023-04-21T14:38:06.007Z,21.44
2023-04-21T14:39:46.368Z,21.25
2023-04-21T14:41:26.671Z,21.09
2023-04-21T14:43:07.069Z,20.92
2023-04-21T14:44:47.484Z,20.78
2023-04-21T14:46:27.877Z,20.67
2023-04-21T14:48:08.428Z,20.57
2023-04-21T14:49:48.615Z,20.52
2023-04-21T14:51:29.091Z,20.64
2023-04-21T14:53:09.575Z,21.01
2023-04-21T14:54:49.951Z,21.52
2023-04-21T14:56:30.373Z,21.85
2023-04-21T14:58:10.785Z,22.09
2023-04-21T14:59:51.271Z,22.46
2023-04-21T15:01:31.692Z,22.49
2023-04-21T15:03:12.234Z,22.38
2023-04-21T15:04:52.580Z,22.34
2023-04-21T15:06:32.984Z,22.15
2023-04-21T15:08:13.351Z,22.08
2023-04-21T15:09:53.793Z,21.98
2023-04-21T15:11:34.121Z,21.88
2023-04-21T15:13:14.459Z,21.84
2023-04-21T15:14:54.872Z,21.8
2023-04-21T15:16:35.308Z,21.97
2023-04-21T15:18:15.643Z,22.18
2023-04-21T15:19:56.048Z,22.46
2023-04-21T15:21:36.427Z,22.74
2023-04-21T15:23:16.801Z,22.97
2023-04-21T15:24:57.188Z,23.14
2023-04-21T15:26:37.629Z,22.93
2023-04-21T15:28:18.064Z,22.73
2023-04-21T15:29:58.613Z,22.5
2023-04-21T15:31:39.009Z,22.32
2023-04-21T15:33:19.358Z,22.29
2023-04-21T15:34:59.793Z,22.35
2023-04-21T15:36:40.198Z,22.32
2023-04-21T15:38:20.525Z,22.23
2023-04-21T15:40:00.943Z,22.16
2023-04-21T15:41:41.459Z,22.12
2023-04-21T15:43:24.318Z,22.12
2023-04-21T15:45:02.174Z,22.02
2023-04-21T15:46:42.581Z,21.95
2023-04-21T15:48:23.122Z,22.13
2023-04-21T15:50:03.477Z,22.28
2023-04-21T15:51:43.876Z,22.29
2023-04-21T15:53:24.362Z,22.48
2023-04-21T15:55:04.730Z,22.66
2023-04-21T15:56:45.093Z,22.8
2023-04-21T15:58:25.447Z,22.74
2023-04-21T16:00:05.853Z,22.76
2023-04-21T16:01:46.369Z,22.85
2023-04-21T16:03:26.748Z,22.89
2023-04-21T16:05:07.443Z,22.85
2023-04-21T16:06:47.472Z,22.83
2023-04-21T16:08:27.809Z,22.97
2023-04-21T16:10:08.185Z,23.04
2023-04-21T16:11:48.613Z,23.07
2023-04-21T16:13:29.020Z,23.03
2023-04-21T16:15:22.462Z,23.03
2023-04-21T16:16:49.872Z,22.97
2023-04-21T16:18:30.400Z,23.01
2023-04-21T16:20:10.732Z,23.03
2023-04-21T16:21:51.117Z,23.03
2023-04-21T16:23:31.457Z,22.93
2023-04-21T16:25:12.110Z,22.9
2023-04-21T16:26:52.474Z,22.8
2023-04-21T16:28:32.942Z,22.8
2023-04-21T16:30:13.220Z,22.83
2023-04-21T16:31:53.716Z,22.79
2023-04-21T16:33:34.043Z,22.59
2023-04-21T16:35:14.414Z,22.53
2023-04-21T16:36:54.735Z,22.5
2023-04-21T16:38:35.114Z,22.52
2023-04-21T16:40:15.574Z,22.46
2023-04-21T16:41:56.038Z,22.53
2023-04-21T16:43:36.281Z,22.31
2023-04-21T16:45:16.718Z,22.22
2023-04-21T16:46:57.178Z,22.12
2023-04-21T16:48:37.675Z,22.04
2023-04-21T16:50:18.010Z,22.01
2023-04-21T16:51:58.385Z,21.95
2023-04-21T16:53:40.197Z,21.94
2023-04-21T16:55:19.205Z,21.94
2023-04-21T16:56:59.528Z,21.97
2023-04-21T16:58:39.977Z,21.95
2023-04-21T17:00:20.359Z,21.92
2023-04-21T17:02:00.763Z,21.8
2023-04-21T17:03:41.647Z,21.81
2023-04-21T17:05:21.552Z,21.8
2023-04-21T17:07:01.976Z,21.77
2023-04-21T17:08:42.330Z,21.71
2023-04-21T17:10:22.775Z,21.67
2023-04-21T17:12:03.150Z,21.76
2023-04-21T17:13:43.629Z,21.73
2023-04-21T17:15:24.007Z,21.68
2023-04-21T17:17:04.480Z,21.52
2023-04-21T17:18:44.787Z,21.43
2023-04-21T17:20:25.217Z,21.3
2023-04-21T17:22:05.648Z,21.13
2023-04-21T17:23:46.156Z,20.92
2023-04-21T17:25:26.433Z,20.78
2023-04-21T17:27:06.865Z,20.65
2023-04-21T17:28:47.260Z,20.51
2023-04-21T17:30:27.638Z,20.29
2023-04-21T17:32:08.012Z,20.06
2023-04-21T17:33:48.590Z,19.89
2023-04-21T17:35:28.874Z,19.71
2023-04-21T17:37:09.272Z,19.54
2023-04-21T17:38:49.698Z,19.32
2023-04-21T17:40:30.026Z,19.18
2023-04-21T17:42:10.449Z,19.03
2023-04-21T17:43:50.847Z,18.87
2023-04-21T17:45:31.248Z,18.72
2023-04-21T17:47:11.569Z,18.59
2023-04-21T17:48:51.969Z,18.45
2023-04-21T17:50:32.297Z,18.34
2023-04-21T17:52:14.146Z,18.23
2023-04-21T17:53:53.103Z,18.14
2023-04-21T17:55:33.467Z,18.01
2023-04-21T17:57:13.935Z,17.9
2023-04-21T17:58:54.310Z,17.76
2023-04-21T18:00:34.719Z,17.65
2023-04-21T18:02:15.328Z,17.6
2023-04-21T18:03:58.503Z,17.52
2023-04-21T18:05:36.062Z,17.43
2023-04-21T18:07:16.512Z,17.36
2023-04-21T18:08:56.906Z,17.29
2023-04-21T18:10:37.409Z,17.21
2023-04-21T18:12:17.811Z,17.14
2023-04-21T18:13:58.196Z,17.08
2023-04-21T18:15:38.704Z,17.05
2023-04-21T18:17:19.009Z,17.01
2023-04-21T18:18:59.234Z,16.94
2023-04-21T18:20:39.631Z,16.91
2023-04-21T18:22:20.018Z,16.9
2023-04-21T18:24:00.330Z,16.81
2023-04-21T18:25:42.956Z,16.71
2023-04-21T18:27:21.116Z,16.6
2023-04-21T18:29:01.420Z,16.54
2023-04-21T18:30:41.802Z,16.5
2023-04-21T18:32:22.212Z,16.43
2023-04-21T18:34:02.602Z,16.39
2023-04-21T18:35:42.972Z,16.39
2023-04-21T18:37:23.455Z,16.36
2023-04-21T18:39:03.869Z,16.27
2023-04-21T18:40:44.309Z,16.26
2023-04-21T18:42:24.724Z,16.16
2023-04-21T18:44:05.113Z,16.16
2023-04-21T18:45:45.487Z,16.12
2023-04-21T18:47:25.900Z,16.17
2023-04-21T18:49:06.250Z,16.16
2023-04-21T18:50:46.601Z,16.11
2023-04-21T18:52:26.987Z,16.11
2023-04-21T18:54:07.357Z,16.08
2023-04-21T18:55:47.767Z,16.05
2023-04-21T18:57:28.157Z,16.01
2023-04-21T18:59:08.528Z,15.99
2023-04-21T19:00:48.895Z,15.95
2023-04-21T19:02:29.511Z,15.89
2023-04-21T19:04:09.931Z,15.91
2023-04-21T19:05:53.142Z,15.92
2023-04-21T19:07:30.573Z,15.86
2023-04-21T19:09:10.946Z,15.84
2023-04-21T19:10:51.408Z,15.82
2023-04-21T19:12:31.748Z,15.74
2023-04-21T19:14:12.173Z,15.69
2023-04-21T19:15:52.637Z,15.71
2023-04-21T19:17:33.073Z,15.69
2023-04-21T19:19:13.459Z,15.65
2023-04-21T19:20:53.782Z,15.62
2023-04-21T19:22:34.167Z,15.64
2023-04-21T19:24:14.565Z,15.64
2023-04-21T19:25:55.063Z,15.61
2023-04-21T19:27:35.449Z,15.57
2023-04-21T19:29:15.782Z,15.56
2023-04-21T19:30:56.224Z,15.54
2023-04-21T19:32:36.760Z,15.56
2023-04-21T19:34:17.186Z,15.58
2023-04-21T19:35:57.496Z,15.56
2023-04-21T19:37:37.866Z,15.53
2023-04-21T19:39:18.240Z,15.46
2023-04-21T19:40:58.673Z,15.36
2023-04-21T19:42:42.165Z,15.36
2023-04-21T19:44:19.543Z,15.4
2023-04-21T19:45:59.928Z,15.38
2023-04-21T19:47:40.309Z,15.38
2023-04-21T19:49:20.612Z,15.38
2023-04-21T19:51:00.986Z,15.37
2023-04-21T19:52:41.335Z,15.3
2023-04-21T19:54:21.719Z,15.22
2023-04-21T19:56:02.152Z,15.19
2023-04-21T19:57:42.540Z,15.19
2023-04-21T19:59:22.916Z,15.17
2023-04-21T20:01:03.311Z,15.14
2023-04-21T20:02:43.925Z,15.07
2023-04-21T20:04:24.325Z,15.07
2023-04-21T20:06:04.664Z,15.03
2023-04-21T20:07:45.065Z,15.02
2023-04-21T20:09:25.497Z,15.05
2023-04-21T20:11:05.939Z,15.06
2023-04-21T20:12:46.403Z,15
2023-04-21T20:14:26.895Z,14.95
2023-04-21T20:16:07.343Z,14.93
2023-04-21T20:17:47.667Z,14.92
2023-04-21T20:19:28.059Z,14.98
2023-04-21T20:21:08.433Z,15
2023-04-21T20:22:48.873Z,15.03
2023-04-21T20:24:29.265Z,15.07
2023-04-21T20:26:09.691Z,15.05
2023-04-21T20:27:50.120Z,15
2023-04-21T20:29:30.494Z,14.96
2023-04-21T20:31:10.862Z,14.99
2023-04-21T20:32:51.275Z,15.06
2023-04-21T20:34:31.661Z,15.05
2023-04-21T20:36:11.976Z,15.06
2023-04-21T20:37:52.368Z,15.06
2023-04-21T20:39:32.721Z,15
2023-04-21T20:41:13.213Z,15.02
2023-04-21T20:42:53.665Z,15.03
2023-04-21T20:44:34.064Z,15
2023-04-21T20:46:14.502Z,14.95
2023-04-21T20:47:54.833Z,14.89
2023-04-21T20:49:35.356Z,14.86
2023-04-21T20:51:15.616Z,14.83
2023-04-21T20:52:56.025Z,14.82
2023-04-21T20:54:36.428Z,14.83
2023-04-21T20:56:16.814Z,14.85
2023-04-21T20:57:57.257Z,14.8
2023-04-21T20:59:37.994Z,14.79
2023-04-21T21:01:18.076Z,14.76
2023-04-21T21:02:58.555Z,14.76
2023-04-21T21:04:38.876Z,14.72
2023-04-21T21:06:19.320Z,14.72
2023-04-21T21:07:59.792Z,14.74
2023-04-21T21:09:40.577Z,14.72
2023-04-21T21:11:20.560Z,14.71
2023-04-21T21:13:00.915Z,14.69
2023-04-21T21:14:41.357Z,14.69
2023-04-21T21:16:21.845Z,14.68
2023-04-21T21:18:02.133Z,14.69
2023-04-21T21:19:42.406Z,14.65
2023-04-21T21:21:22.722Z,14.64
2023-04-21T21:23:03.126Z,14.61
2023-04-21T21:24:43.467Z,14.57
2023-04-21T21:26:23.922Z,14.61
2023-04-21T21:28:04.418Z,14.58
2023-04-21T21:29:44.899Z,14.49
2023-04-21T21:31:25.237Z,14.48
2023-04-21T21:33:05.718Z,14.48
2023-04-21T21:34:46.064Z,14.45
2023-04-21T21:36:26.517Z,14.38
2023-04-21T21:38:06.976Z,14.37
2023-04-21T21:39:47.311Z,14.34
2023-04-21T21:41:27.622Z,14.34
2023-04-21T21:43:08.006Z,14.34
2023-04-21T21:44:48.389Z,14.32
2023-04-21T21:46:28.764Z,14.34
2023-04-21T21:48:09.286Z,14.31
2023-04-21T21:49:49.699Z,14.27
2023-04-21T21:51:30.060Z,14.3